createdAt,value
2023-01-05T00:04:38.993Z,104.23
2023-01-05T00:15:00.584Z,103.38
2023-01-05T00:25:11.734Z,103.10
2023-01-05T00:35:18.045Z,103.26
2023-01-05T00:45:22.028Z,103.92
2023-01-05T00:55:26.422Z,103.66
2023-01-05T01:05:29.187Z,102.89
2023-01-05T01:15:33.452Z,102.15
2023-01-05T01:25:38.500Z,101.48
2023-01-05T01:35:42.879Z,102.70
2023-01-05T01:45:45.796Z,104.31
2023-01-05T01:55:51.885Z,104.00
2023-01-05T02:05:55.142Z,102.19
2023-01-05T02:16:05.885Z,101.32
2023-01-05T02:26:30.176Z,100.26
2023-01-05T02:36:40.720Z,99.25
2023-01-05T02:46:43.467Z,98.71
2023-01-05T02:56:52.837Z,97.63
2023-01-05T03:06:58.013Z,97.00
2023-01-05T03:17:02.824Z,97.47
2023-01-05T03:27:25.391Z,96.49
2023-01-05T03:37:35.109Z,98.77
2023-01-05T03:47:37.957Z,99.93
2023-01-05T03:57:42.146Z,98.07
2023-01-05T04:07:44.893Z,96.62
2023-01-05T04:17:49.115Z,95.91
2023-01-05T04:27:51.922Z,96.25
2023-01-05T04:37:55.932Z,96.41
2023-01-05T04:47:58.661Z,95.56
2023-01-05T04:58:06.893Z,97.22
2023-01-05T05:08:12.809Z,95.82
2023-01-05T05:18:16.913Z,95.55
2023-01-05T05:28:20.029Z,97.95
2023-01-05T05:38:24.182Z,95.57
2023-01-05T05:48:26.958Z,97.76
2023-01-05T05:58:31.246Z,100.06
2023-01-05T06:08:34.198Z,99.78
2023-01-05T06:18:38.243Z,97.36
2023-01-05T06:28:41.044Z,96.79
2023-01-05T06:38:45.563Z,96.78
2023-01-05T06:48:48.301Z,96.97
2023-01-05T06:58:52.514Z,97.62
2023-01-05T07:08:55.263Z,97.02
2023-01-05T07:18:59.545Z,94.08
2023-01-05T07:29:02.350Z,94.43
2023-01-05T07:39:06.669Z,96.34
2023-01-05T07:49:09.388Z,97.40
2023-01-05T07:59:13.434Z,96.37
2023-01-05T08:09:33.570Z,98.09
2023-01-05T08:19:37.679Z,100.20
2023-01-05T08:29:40.431Z,99.80
2023-01-05T08:39:44.440Z,99.42
2023-01-05T08:49:47.310Z,97.98
2023-01-05T08:59:51.414Z,99.63
2023-01-05T09:09:54.299Z,99.38
2023-01-05T09:19:58.377Z,99.34
2023-01-05T09:30:01.094Z,98.71
2023-01-05T09:40:06.105Z,98.74
2023-01-05T09:50:19.325Z,97.81
2023-01-05T10:00:24.911Z,97.41
2023-01-05T10:10:46.139Z,96.48
2023-01-05T10:21:02.589Z,95.01
2023-01-05T10:31:14.426Z,93.04
2023-01-05T10:41:26.888Z,92.00
2023-01-05T10:51:34.333Z,91.08
2023-01-05T11:01:39.233Z,89.08
2023-01-05T11:11:42.291Z,90.62
2023-01-05T11:21:47.386Z,91.31
2023-01-05T11:31:54.539Z,91.41
2023-01-05T11:42:17.482Z,89.86
2023-01-05T11:52:27.246Z,89.34
2023-01-05T12:03:03.635Z,90.32
2023-01-05T12:13:22.194Z,91.86
2023-01-05T12:23:50.885Z,91.85
2023-01-05T12:34:36.141Z,90.35
2023-01-05T12:45:12.934Z,89.69
2023-01-05T12:55:20.161Z,91.11
2023-01-05T13:05:29.992Z,89.43
2023-01-05T13:15:40.452Z,90.53
2023-01-05T13:25:51.963Z,90.92
2023-01-05T13:36:05.111Z,95.18
2023-01-05T13:46:47.290Z,97.18
2023-01-05T13:56:51.098Z,98.82
2023-01-05T14:06:58.344Z,99.00
2023-01-05T14:17:01.012Z,98.74
2023-01-05T14:27:08.244Z,98.80
2023-01-05T14:37:23.640Z,98.37
2023-01-05T14:47:44.891Z,98.55
2023-01-05T14:57:52.267Z,98.92
2023-01-05T15:08:08.573Z,99.37
2023-01-05T15:18:48.868Z,99.28
2023-01-05T15:29:24.039Z,99.74
2023-01-05T15:39:31.871Z,100.12
2023-01-05T15:49:36.058Z,100.26
2023-01-05T15:59:41.545Z,100.20
2023-01-05T16:09:48.271Z,99.97
2023-01-05T16:19:53.947Z,100.10
2023-01-05T16:30:14.885Z,100.13
2023-01-05T16:40:21.341Z,100.20
2023-01-05T16:50:53.165Z,99.80
2023-01-05T17:01:15.382Z,100.05
2023-01-05T17:11:19.490Z,99.97
2023-01-05T17:21:24.628Z,99.79
2023-01-05T17:31:29.350Z,99.91
2023-01-05T17:41:32.395Z,100.29
2023-01-05T17:51:36.659Z,100.10
2023-01-05T18:01:39.411Z,99.83
2023-01-05T18:11:43.789Z,99.85
2023-01-05T18:21:46.686Z,99.87
2023-01-05T18:31:50.819Z,99.49
2023-01-05T18:41:53.543Z,99.37
2023-01-05T18:51:57.647Z,99.20
2023-01-05T19:02:00.431Z,99.17
2023-01-05T19:12:05.060Z,98.92
2023-01-05T19:22:07.775Z,98.84
2023-01-05T19:32:12.022Z,98.82
2023-01-05T19:42:15.052Z,98.90
2023-01-05T19:52:19.089Z,98.55
2023-01-05T20:02:21.994Z,98.97
2023-01-05T20:12:26.119Z,99.23
2023-01-05T20:22:28.842Z,98.55
2023-01-05T20:32:34.728Z,99.69
2023-01-05T20:42:38.324Z,99.89
2023-01-05T20:52:42.496Z,101.10
2023-01-05T21:02:47.473Z,101.82
2023-01-05T21:12:51.825Z,102.47
2023-01-05T21:22:56.108Z,102.84
2023-01-05T21:33:00.181Z,102.65
2023-01-05T21:43:05.013Z,101.19
2023-01-05T21:53:31.999Z,101.79
2023-01-05T22:03:34.735Z,104.17
2023-01-05T22:13:40.003Z,102.67
2023-01-05T22:23:43.205Z,103.43
2023-01-05T22:33:49.315Z,103.15
2023-01-05T22:43:52.518Z,103.31
2023-01-05T22:53:57.048Z,102.57
2023-01-05T23:04:02.083Z,103.71
2023-01-05T23:14:08.278Z,103.57
2023-01-05T23:24:11.105Z,103.95
2023-01-05T23:34:15.259Z,103.75
2023-01-05T23:44:17.957Z,103.38
2023-01-05T23:54:22.070Z,103.14
